SANE/SDE METAR and TAF weather

Enter ICAO airport designator
Station Type Date Time Source
SANE METAR 2021/02/24 09:30 UTC NOAA

SANE 240930Z 20005KT 9999 SCT015 BKN025 BKN060 21/20 Q1016


Station Type Date Time Source
SANE Decoded METAR 2021/02/24 09:30 UTC NOAA

Santiago Del Estero Aero., Argentina (SANE) 27-46S 064-18W 199M
Feb 24, 2021 - 04:30 AM EST / 2021.02.24 0930 UTC
Wind: from the SSW (200 degrees) at 6 MPH (5 KT):0
Visibility: greater than 7 mile(s):0
Sky conditions: mostly cloudy
Temperature: 69 F (21 C)
Dew Point: 68 F (20 C)
Relative Humidity: 94%
Pressure (altimeter): 30.00 in. Hg (1016 hPa)
ob: SANE 240930Z 20005KT 9999 SCT015 BKN025 BKN060 21/20 Q1016
cycle: 9

Station Type Date Time Source
SANE TAF 2021/01/25 18:30 UTC NOAA

TAF TAF SANE 251700Z 2518/2618 05005KT 9999 SCT045 TX35/2619Z TN23/2609Z
BECMG 2522/2600 05010KT 9999 SCT035 FEW040TCU
TEMPO 2606/2609 23015G25KT 8000 TS SHRA BKN030 FEW040CB

Example: see airport list